createdAt,value
2017-08-21T14:03:10.046Z,34.4
2017-08-21T14:04:12.447Z,33.0
2017-08-21T14:05:14.165Z,28.1
2017-08-21T14:06:15.885Z,25.6
2017-08-21T14:07:17.703Z,25.2
2017-08-21T14:08:19.296Z,25.0
2017-08-21T14:09:21.098Z,24.2
2017-08-21T14:10:22.698Z,24.6
2017-08-21T14:11:24.416Z,24.5
2017-08-21T14:12:26.267Z,23.8
2017-08-21T14:13:27.858Z,23.4
2017-08-21T14:14:29.456Z,22.9
2017-08-21T14:15:31.006Z,25.2
2017-08-21T14:16:32.573Z,28.9
2017-08-21T14:17:34.410Z,31.8
2017-08-21T14:18:36.012Z,30.3
2017-08-21T14:19:38.557Z,27.9
2017-08-21T14:20:40.143Z,28.9
2017-08-21T14:21:41.746Z,26.8
2017-08-21T14:22:44.863Z,25.6
2017-08-21T14:23:46.733Z,25.5
2017-08-21T14:24:49.621Z,24.8
2017-08-21T14:25:52.887Z,24.1
2017-08-21T14:26:55.365Z,26.9
2017-08-21T14:27:57.107Z,29.8
2017-08-21T14:29:00.247Z,31.9
2017-08-21T14:30:02.171Z,33.5
2017-08-21T14:31:05.095Z,33.3
2017-08-21T14:32:07.151Z,33.3
2017-08-21T14:33:08.647Z,34.0
2017-08-21T14:34:10.844Z,34.9
2017-08-21T14:35:12.530Z,34.7
2017-08-21T14:36:14.255Z,34.7
2017-08-21T14:37:15.894Z,34.6
2017-08-21T14:38:18.042Z,35.0
2017-08-21T14:39:19.821Z,36.1
2017-08-21T14:40:21.478Z,36.4
2017-08-21T14:41:23.315Z,36.6
2017-08-21T14:42:25.345Z,36.5
2017-08-21T14:43:27.306Z,36.4
2017-08-21T14:44:28.995Z,36.6
2017-08-21T14:45:30.738Z,33.6
2017-08-21T14:46:32.390Z,34.1
2017-08-21T14:47:34.109Z,34.8
2017-08-21T14:48:35.742Z,35.1
2017-08-21T14:49:37.376Z,35.1
2017-08-21T14:50:39.007Z,35.0
2017-08-21T14:51:40.664Z,34.7
2017-08-21T14:52:42.336Z,34.7
2017-08-21T14:53:44.026Z,34.9
2017-08-21T14:54:46.240Z,33.4
2017-08-21T14:55:47.971Z,30.8
2017-08-21T14:56:49.576Z,29.9
2017-08-21T14:57:51.224Z,28.9
2017-08-21T14:58:53.023Z,29.0
2017-08-21T14:59:54.996Z,28.0
2017-08-21T15:00:56.675Z,25.7
2017-08-21T15:01:58.300Z,26.2
2017-08-21T15:03:00.088Z,29.1
2017-08-21T15:04:01.680Z,32.5
2017-08-21T15:05:03.481Z,32.3
2017-08-21T15:06:05.203Z,33.4
2017-08-21T15:07:06.925Z,34.5
2017-08-21T15:08:08.640Z,35.8
2017-08-21T15:09:10.503Z,36.0
2017-08-21T15:10:12.254Z,35.0
2017-08-21T15:11:13.897Z,31.5
2017-08-21T15:12:15.579Z,30.3
2017-08-21T15:13:17.283Z,29.6
2017-08-21T15:14:18.956Z,29.8
2017-08-21T15:15:20.675Z,29.9
2017-08-21T15:16:22.389Z,28.1
2017-08-21T15:17:24.099Z,26.6
2017-08-21T15:18:25.996Z,27.0
2017-08-21T15:19:27.838Z,29.9
2017-08-21T15:20:29.542Z,32.0
2017-08-21T15:21:31.391Z,31.7
2017-08-21T15:22:33.221Z,29.8
2017-08-21T15:23:34.969Z,28.5
2017-08-21T15:24:36.619Z,27.6
2017-08-21T15:25:38.383Z,27.0
2017-08-21T15:26:40.142Z,27.0
2017-08-21T15:27:41.973Z,29.1
2017-08-21T15:28:43.707Z,31.3
2017-08-21T15:29:45.340Z,31.7
2017-08-21T15:30:47.027Z,32.5
2017-08-21T15:31:48.631Z,31.5
2017-08-21T15:32:50.346Z,30.9
2017-08-21T15:33:51.963Z,31.2
2017-08-21T15:34:54.550Z,32.5
2017-08-21T15:35:57.647Z,34.8
2017-08-21T15:36:59.497Z,35.5
2017-08-21T15:38:01.113Z,36.0
2017-08-21T15:39:02.856Z,36.6
2017-08-21T15:40:04.505Z,36.7
2017-08-21T15:41:06.217Z,37.1
2017-08-21T15:42:07.926Z,37.3
2017-08-21T15:43:09.561Z,37.5
2017-08-21T15:44:11.274Z,37.9
2017-08-21T15:45:12.934Z,38.4
2017-08-21T15:46:14.518Z,38.5
2017-08-21T15:47:16.032Z,38.2
2017-08-21T15:48:17.555Z,38.4
2017-08-21T15:49:19.080Z,39.0
2017-08-21T15:50:20.880Z,38.3
2017-08-21T15:51:22.791Z,37.2
2017-08-21T15:52:24.669Z,36.5
2017-08-21T15:53:26.497Z,35.5
2017-08-21T15:54:28.215Z,33.3
2017-08-21T15:55:29.924Z,32.0
2017-08-21T15:56:31.583Z,31.2
2017-08-21T15:57:34.008Z,30.6
2017-08-21T15:58:35.587Z,30.9
2017-08-21T15:59:37.192Z,30.3
2017-08-21T16:00:38.936Z,29.8
2017-08-21T16:01:40.564Z,29.3
2017-08-21T16:02:42.338Z,29.4
2017-08-21T16:03:43.974Z,29.7
2017-08-21T16:04:45.639Z,30.3
2017-08-21T16:05:47.377Z,31.4
2017-08-21T16:06:49.114Z,31.2
2017-08-21T16:07:50.925Z,31.3
2017-08-21T16:08:52.738Z,33.2
2017-08-21T16:09:54.494Z,34.8
2017-08-21T16:10:56.184Z,35.0
2017-08-21T16:11:57.990Z,35.3
2017-08-21T16:13:00.555Z,36.2
